Flight Track Log - Related Links

Times and Time Zones

All times are in EDT time to prevent confusion due to time zone crossing. See the N83WD flight status page for this flight to view local times or setup timezone preferences in your user account.

Time Position Orientation Groundspeed Altitude Reporting Facility
EDT Latitude Longitude Course Direction KTS MPH feet Rate Location/Type
Thu 05:44:41 PM 32.5681 -96.3508 88° East 178 205 4,100  Level Fort Worth Center
Thu 05:45:41 PM 32.5694 -96.2892 88° East 189 217 4,800 600 Climbing Fort Worth Center
Thu 05:46:41 PM 32.5711 -96.2375 88° East 170 196 5,300 650 Climbing Fort Worth Center
Thu 05:47:41 PM 32.5706 -96.1881 91° East 154 177 6,100 700 Climbing Fort Worth Center
Thu 05:48:41 PM 32.5681 -96.1364 93° East 154 177 6,700 600 Climbing Fort Worth Center
Thu 05:49:41 PM 32.5675 -96.0772 91° East 160 184 7,300 550 Climbing Fort Worth Center
Thu 05:50:41 PM 32.5647 -96.0183 93° East 168 193 7,800 700 Climbing Fort Worth Center
Thu 05:51:41 PM 32.5619 -95.9567 93° East 176 203 8,700 700 Climbing Fort Worth Center
Thu 05:52:41 PM 32.5614 -95.9000 91° East 176 203 9,200 250 Climbing Fort Worth Center
Thu 05:53:41 PM 32.5583 -95.8383 93° East 182 209 9,200 50 Level Fort Worth Center
Thu 05:54:41 PM 32.5575 -95.7742 91° East 187 215 9,300 150 Climbing Fort Worth Center
Thu 05:55:41 PM 32.5547 -95.7103 93° East 192 221 9,500  Climbing Fort Worth Center
Thu 05:56:41 PM 32.5539 -95.6436 91° East 192 221 9,300 -100 Descending Fort Worth Center
Thu 05:57:41 PM 32.5486 -95.5847 96° East 199 229 9,300 50 Level Fort Worth Center
Thu 05:58:41 PM 32.5456 -95.5183 93° East 199 229 9,400 50 Climbing Fort Worth Center
Thu 05:59:41 PM 32.5467 -95.4492 89° East 199 229 9,400  Level Fort Worth Center
Thu 06:00:41 PM 32.5436 -95.3875 93° East 194 223 9,400  Level Fort Worth Center
Thu 06:01:41 PM 32.5447 -95.3211 89° East 194 223 9,400 50 Level Fort Worth Center
Thu 06:02:41 PM 32.5394 -95.2522 95° East 200 230 9,500 50 Climbing Fort Worth Center
Thu 06:03:41 PM 32.5422 -95.1831 87° East 200 230 9,500  Level Fort Worth Center
Thu 06:04:41 PM 32.5411 -95.1192 91° East 194 223 9,500 -50 Level Fort Worth Center
Thu 06:05:41 PM 32.5419 -95.0525 89° East 194 223 9,400 -100 Descending Fort Worth Center
Thu 06:06:41 PM 32.5428 -94.9836 89° East 199 229 9,300 100 Descending Fort Worth Center
Thu 06:07:41 PM 32.5436 -94.9194 89° East 199 229 9,600 100 Climbing Fort Worth Center
Thu 06:08:41 PM 32.5422 -94.8528 91° East 193 222 9,500 -150 Descending Fort Worth Center
Thu 06:09:41 PM 32.5408 -94.7889 91° East 193 222 9,300 -100 Descending Fort Worth Center
Thu 06:10:41 PM 32.5394 -94.7175 91° East 198 228 9,300  Level Fort Worth Center
Thu 06:11:41 PM 32.5422 -94.6508 87° East 193 222 9,300 119 Level Fort Worth Center
Thu 06:12:22 PM 32.5369 -94.6067 98° East 198 228 9,500 145 Climbing Fort Worth Center
Thu 06:13:04 PM 32.5361 -94.5647 91° East 197 227 9,500 58 Level Fort Worth Center
Thu 06:14:05 PM 32.5283 -94.4986 98° East 200 230 9,600 47 Climbing Fort Worth Center
Thu 06:15:12 PM 32.5286 -94.4244 90° East 198 228 9,600 -331 Level Fort Worth Center
Thu 06:16:12 PM 32.5331 -94.3531 86° East 212 244 8,900 -783 Descending Fort Worth Center
Thu 06:17:07 PM 32.5294 -94.2892 94° East 221 254 8,100 -716 Descending Fort Worth Center
Thu 06:18:01 PM 32.5217 -94.2278 99° East 208 239 7,600 -730 Descending Fort Worth Center
Thu 06:19:02 PM 32.5242 -94.1586 88° East 208 239 6,700 -844 Descending Fort Worth Center
Thu 06:20:09 PM 32.5283 -94.0847 86° East 203 234 5,800 -898 Descending Fort Worth Center
Thu 06:21:09 PM 32.5372 -94.0228 80° East 194 223 4,800 -1,041 Descending Fort Worth Center
Thu 06:22:10 PM 32.5481 -93.9583 79° East 199 229 3,700 -1,086 Descending Fort Worth Center
Thu 06:23:05 PM 32.5589 -93.9011 77° East 193 222 2,700 -939 Descending Fort Worth Center
Thu 06:24:05 PM 32.5722 -93.8489 73° East 172 198 1,900 -709 Descending Fort Worth Center
Thu 06:25:12 PM 32.5728 -93.7969 89° East 122 140 1,200 -672 Descending Fort Worth Center
Thu 06:26:19 PM 32.5528 -93.7608 123° Southeast 119 137 400 -716 Descending Fort Worth Center
Thu 06:28:00 PM 32.5402 -93.7450 90° East  Level Estimated
Thu 06:35:00 PM 32.5402 -93.7450 90° East  Level Estimated

Login

Don't have an account? Register now (free) for customized features, flight alerts, and more!